Time;durP1;ratioP1;P1;durP2;ratioP2;P2;SDS_P1;SDS_P2;PMS_P1;PMS_P2;Temp;Humidity;BMP_temperature;BMP_pressure;BME280_temperature;BME280_humidity;BME280_pressure;Samples;Min_cycle;Max_cycle;Signal;HPM_P1;HPM_P2
2023/07/18 00:02:26;;;;;;;10.80;1.40;;;;;;;;;;5060391;28;20059;-59
2023/07/18 00:04:56;;;;;;;8.88;1.92;;;;;;;;;;5057430;28;20071;-59
2023/07/18 00:07:27;;;;;;;8.73;1.45;;;;;;;;;;5070476;28;20055;-59
2023/07/18 00:09:55;;;;;;;11.10;1.98;;;;;;;;;;5059124;28;20067;-59
2023/07/18 00:12:25;;;;;;;8.40;1.17;;;;;;;;;;5048499;28;20055;-59
2023/07/18 00:14:53;;;;;;;8.45;1.50;;;;;;;;;;5066751;28;20052;-59
2023/07/18 00:17:21;;;;;;;11.75;1.75;;;;;;;;;;5041670;28;20052;-59
2023/07/18 00:19:50;;;;;;;7.95;1.17;;;;;;;;;;5068216;28;20052;-57
2023/07/18 00:22:19;;;;;;;7.72;1.20;;;;;;;;;;5061428;28;20059;-59
2023/07/18 00:24:47;;;;;;;7.80;1.53;;;;;;;;;;5066577;28;20052;-59
2023/07/18 00:27:16;;;;;;;13.73;1.35;;;;;;;;;;5051871;28;20066;-59
2023/07/18 00:29:44;;;;;;;5.82;1.05;;;;;;;;;;5045500;28;20051;-59
2023/07/18 00:32:11;;;;;;;7.90;1.40;;;;;;;;;;5056099;28;20044;-59
2023/07/18 00:34:40;;;;;;;9.13;1.50;;;;;;;;;;5059922;28;20117;-59
2023/07/18 00:37:08;;;;;;;8.73;1.07;;;;;;;;;;5051413;28;20756;-59
2023/07/18 00:39:37;;;;;;;9.75;1.33;;;;;;;;;;5064597;28;20036;-59
2023/07/18 00:42:05;;;;;;;8.15;1.58;;;;;;;;;;5048405;28;20054;-59
2023/07/18 00:44:32;;;;;;;7.38;1.42;;;;;;;;;;5064644;28;20062;-59
2023/07/18 00:47:01;;;;;;;9.52;1.50;;;;;;;;;;5062610;28;20048;-59
2023/07/18 00:49:29;;;;;;;7.23;1.40;;;;;;;;;;5062929;28;20051;-59
2023/07/18 00:51:57;;;;;;;6.72;1.20;;;;;;;;;;5053672;28;20147;-59
2023/07/18 00:54:25;;;;;;;8.68;1.45;;;;;;;;;;5066369;28;20131;-59
2023/07/18 00:56:54;;;;;;;7.95;1.15;;;;;;;;;;5061551;28;20067;-58
2023/07/18 00:59:24;;;;;;;7.60;1.13;;;;;;;;;;5056437;28;20056;-59
2023/07/18 01:01:53;;;;;;;10.10;1.50;;;;;;;;;;5055599;28;20048;-59
2023/07/18 01:04:21;;;;;;;7.82;1.52;;;;;;;;;;5062681;28;20044;-59
2023/07/18 01:06:49;;;;;;;13.85;1.58;;;;;;;;;;5058854;28;20044;-59
2023/07/18 01:09:16;;;;;;;10.00;1.10;;;;;;;;;;5064642;28;20163;-58
2023/07/18 01:11:44;;;;;;;11.10;1.33;;;;;;;;;;5055316;28;20048;-59
2023/07/18 01:14:13;;;;;;;6.53;1.30;;;;;;;;;;5060143;28;20513;-59
2023/07/18 01:16:41;;;;;;;8.77;1.20;;;;;;;;;;5060090;28;20052;-59
2023/07/18 01:19:09;;;;;;;8.82;1.20;;;;;;;;;;5062256;28;20052;-59
2023/07/18 01:21:38;;;;;;;11.10;1.00;;;;;;;;;;5069699;28;20047;-59
2023/07/18 01:24:12;;;;;;;8.95;1.58;;;;;;;;;;5070030;28;20145;-59
2023/07/18 01:26:40;;;;;;;9.80;1.37;;;;;;;;;;5053430;28;20055;-59
2023/07/18 01:29:08;;;;;;;12.23;1.30;;;;;;;;;;5035693;28;20302;-58
2023/07/18 01:31:36;;;;;;;8.18;1.40;;;;;;;;;;5061714;28;20432;-59
2023/07/18 01:34:04;;;;;;;13.13;1.70;;;;;;;;;;5028356;28;20048;-59
2023/07/18 01:36:32;;;;;;;8.57;1.25;;;;;;;;;;5054136;28;20060;-59
2023/07/18 01:39:01;;;;;;;12.07;1.47;;;;;;;;;;5048986;28;20048;-59
2023/07/18 01:41:30;;;;;;;8.98;1.27;;;;;;;;;;5046359;28;20063;-59
2023/07/18 01:44:00;;;;;;;8.68;1.30;;;;;;;;;;5064054;28;20078;-59
2023/07/18 01:46:33;;;;;;;8.95;1.17;;;;;;;;;;5048212;28;20047;-59
2023/07/18 01:49:00;;;;;;;6.57;1.70;;;;;;;;;;5063204;28;20527;-59
2023/07/18 01:51:28;;;;;;;6.77;1.10;;;;;;;;;;5066723;28;20048;-59
2023/07/18 01:53:56;;;;;;;10.75;1.50;;;;;;;;;;5052793;28;20132;-59
2023/07/18 01:56:25;;;;;;;10.65;1.48;;;;;;;;;;5044727;28;20040;-59
2023/07/18 01:58:53;;;;;;;7.85;1.23;;;;;;;;;;5070620;28;20474;-58
2023/07/18 02:01:20;;;;;;;8.02;1.10;;;;;;;;;;5053847;28;20048;-59
2023/07/18 02:03:48;;;;;;;6.00;1.20;;;;;;;;;;5067718;28;20098;-58
2023/07/18 02:06:16;;;;;;;10.95;2.08;;;;;;;;;;5062623;28;20051;-58
2023/07/18 02:08:44;;;;;;;12.65;1.35;;;;;;;;;;5059202;28;20052;-59
2023/07/18 02:11:11;;;;;;;11.18;1.10;;;;;;;;;;5026207;28;20050;-59
2023/07/18 02:13:42;;;;;;;6.53;1.30;;;;;;;;;;5057078;28;20505;-59
2023/07/18 02:16:10;;;;;;;8.40;1.10;;;;;;;;;;5063888;28;20050;-59
2023/07/18 02:18:37;;;;;;;12.52;1.67;;;;;;;;;;5044197;28;20450;-59
2023/07/18 02:21:05;;;;;;;8.52;1.33;;;;;;;;;;5058841;28;20060;-59
2023/07/18 02:23:33;;;;;;;9.57;1.65;;;;;;;;;;5062338;28;20063;-59
2023/07/18 02:26:00;;;;;;;10.95;1.65;;;;;;;;;;5071484;28;20052;-58
2023/07/18 02:28:28;;;;;;;11.47;1.13;;;;;;;;;;5044300;28;20048;-58
2023/07/18 02:30:59;;;;;;;8.50;1.58;;;;;;;;;;5052176;28;20048;-58
2023/07/18 02:33:27;;;;;;;10.27;1.73;;;;;;;;;;5065533;28;20040;-58
2023/07/18 02:35:55;;;;;;;7.55;1.33;;;;;;;;;;5058893;28;20049;-58
2023/07/18 02:38:24;;;;;;;12.18;2.15;;;;;;;;;;5075269;28;20487;-58
2023/07/18 02:40:57;;;;;;;11.77;1.50;;;;;;;;;;5067402;28;20483;-59
2023/07/18 02:43:24;;;;;;;8.73;1.35;;;;;;;;;;5051212;28;20040;-58
2023/07/18 02:45:52;;;;;;;8.80;1.63;;;;;;;;;;5064368;28;20052;-58
2023/07/18 02:48:21;;;;;;;7.50;1.15;;;;;;;;;;5063994;28;20044;-58
2023/07/18 02:50:49;;;;;;;9.90;1.52;;;;;;;;;;5062918;28;20252;-58
2023/07/18 02:53:17;;;;;;;10.87;1.50;;;;;;;;;;5033142;28;20382;-59
2023/07/18 02:55:44;;;;;;;8.90;1.40;;;;;;;;;;5049814;28;20063;-59
2023/07/18 02:58:12;;;;;;;8.15;1.60;;;;;;;;;;5058499;28;20044;-58
2023/07/18 03:00:40;;;;;;;11.55;1.70;;;;;;;;;;5066500;28;20248;-58
2023/07/18 03:03:08;;;;;;;9.30;1.60;;;;;;;;;;5056835;28;20048;-56
2023/07/18 03:05:38;;;;;;;7.73;1.37;;;;;;;;;;5053181;28;20040;-58
2023/07/18 03:08:05;;;;;;;7.45;1.60;;;;;;;;;;5073583;28;20048;-58
2023/07/18 03:10:33;;;;;;;9.07;2.00;;;;;;;;;;5043984;28;20067;-58
2023/07/18 03:13:01;;;;;;;9.43;1.38;;;;;;;;;;5066766;28;20498;-58
2023/07/18 03:15:28;;;;;;;9.43;1.88;;;;;;;;;;5031072;28;20974;-56
2023/07/18 03:17:56;;;;;;;8.17;1.40;;;;;;;;;;5048397;28;20056;-59
2023/07/18 03:20:24;;;;;;;9.13;1.65;;;;;;;;;;5055782;28;20048;-59
2023/07/18 03:22:53;;;;;;;11.05;2.35;;;;;;;;;;5053877;28;20045;-58
2023/07/18 03:25:21;;;;;;;13.27;1.55;;;;;;;;;;5052934;28;20074;-58
2023/07/18 03:27:49;;;;;;;11.75;1.83;;;;;;;;;;5058506;28;20061;-57
2023/07/18 03:30:17;;;;;;;11.90;1.73;;;;;;;;;;5063430;28;20052;-58
2023/07/18 03:32:45;;;;;;;10.45;1.70;;;;;;;;;;5061575;28;20048;-58
2023/07/18 03:35:14;;;;;;;6.47;1.20;;;;;;;;;;5065457;28;20458;-58
2023/07/18 03:37:42;;;;;;;9.95;1.83;;;;;;;;;;5053783;28;20044;-58
2023/07/18 03:40:15;;;;;;;10.27;2.00;;;;;;;;;;5061346;28;20513;-58
2023/07/18 03:42:44;;;;;;;8.37;1.60;;;;;;;;;;5058831;28;20049;-58
2023/07/18 03:45:13;;;;;;;8.77;1.58;;;;;;;;;;5057684;28;20044;-58
2023/07/18 03:47:41;;;;;;;9.95;1.80;;;;;;;;;;5070997;28;20082;-58
2023/07/18 03:50:10;;;;;;;14.50;1.45;;;;;;;;;;5070301;28;20123;-57
2023/07/18 03:52:37;;;;;;;12.45;1.80;;;;;;;;;;5062529;28;20044;-58
2023/07/18 03:55:06;;;;;;;8.43;1.50;;;;;;;;;;5062193;28;20487;-58
2023/07/18 03:57:35;;;;;;;7.45;1.67;;;;;;;;;;5060972;28;20048;-58
2023/07/18 04:00:13;;;;;;;9.40;2.15;;;;;;;;;;5070212;28;20055;-59
2023/07/18 04:02:42;;;;;;;11.48;1.77;;;;;;;;;;5057908;28;20048;-58
2023/07/18 04:05:13;;;;;;;10.50;1.77;;;;;;;;;;5064000;28;22111;-58
2023/07/18 04:07:41;;;;;;;8.80;1.50;;;;;;;;;;5070259;28;20534;-58
2023/07/18 04:10:11;;;;;;;9.18;1.83;;;;;;;;;;5062949;28;20490;-56
2023/07/18 04:12:40;;;;;;;14.63;2.35;;;;;;;;;;5069930;28;20135;-58
2023/07/18 04:15:11;;;;;;;8.48;1.30;;;;;;;;;;5061838;28;20386;-58
2023/07/18 04:17:39;;;;;;;9.82;1.70;;;;;;;;;;5058388;28;20051;-58
2023/07/18 04:20:08;;;;;;;9.17;1.87;;;;;;;;;;5054655;28;21058;-58
2023/07/18 04:22:35;;;;;;;13.23;1.83;;;;;;;;;;5064345;28;20056;-58
2023/07/18 04:25:03;;;;;;;8.52;2.00;;;;;;;;;;5062033;28;20385;-59
2023/07/18 04:27:31;;;;;;;10.70;1.50;;;;;;;;;;5073445;28;20052;-58
2023/07/18 04:30:02;;;;;;;8.98;1.63;;;;;;;;;;5064849;28;20510;-58
2023/07/18 04:32:30;;;;;;;10.03;1.77;;;;;;;;;;5064115;28;20044;-59
2023/07/18 04:34:58;;;;;;;10.13;1.83;;;;;;;;;;5060906;28;20100;-59
2023/07/18 04:37:26;;;;;;;11.15;1.85;;;;;;;;;;5066592;28;20051;-58
2023/07/18 04:39:53;;;;;;;8.45;1.33;;;;;;;;;;5063782;28;20048;-58
2023/07/18 04:42:21;;;;;;;11.30;1.83;;;;;;;;;;5063514;28;20044;-59
2023/07/18 04:44:49;;;;;;;13.67;1.40;;;;;;;;;;5051090;28;20057;-57
2023/07/18 04:47:18;;;;;;;9.68;1.52;;;;;;;;;;5061403;28;20045;-59
2023/07/18 04:49:48;;;;;;;9.50;1.40;;;;;;;;;;5060195;28;20506;-59
2023/07/18 04:52:16;;;;;;;8.18;1.10;;;;;;;;;;5064078;28;20059;-58
2023/07/18 04:54:44;;;;;;;7.40;1.50;;;;;;;;;;5055839;28;20089;-58
2023/07/18 04:57:12;;;;;;;8.13;2.10;;;;;;;;;;5062555;28;20051;-59
2023/07/18 04:59:41;;;;;;;12.88;2.42;;;;;;;;;;5065244;28;20059;-58
2023/07/18 05:02:08;;;;;;;9.88;1.25;;;;;;;;;;5060353;28;20131;-54
2023/07/18 05:04:37;;;;;;;9.15;1.83;;;;;;;;;;5064447;28;20048;-58
2023/07/18 05:07:05;;;;;;;9.98;1.50;;;;;;;;;;5060478;28;20043;-59
2023/07/18 05:09:33;;;;;;;7.00;1.60;;;;;;;;;;5067551;28;20502;-59
2023/07/18 05:12:01;;;;;;;9.77;1.70;;;;;;;;;;5055617;28;20052;-59
2023/07/18 05:14:28;;;;;;;7.70;1.30;;;;;;;;;;5064205;28;20060;-56
2023/07/18 05:16:56;;;;;;;8.75;1.40;;;;;;;;;;5059003;28;20048;-59
2023/07/18 05:19:24;;;;;;;10.07;1.40;;;;;;;;;;5061691;28;20048;-58
2023/07/18 05:21:54;;;;;;;6.97;1.50;;;;;;;;;;5057963;28;20420;-58
2023/07/18 05:24:25;;;;;;;11.13;1.60;;;;;;;;;;5070332;28;20047;-58
2023/07/18 05:26:53;;;;;;;10.18;2.08;;;;;;;;;;5044297;28;20052;-58
2023/07/18 05:29:21;;;;;;;7.70;1.27;;;;;;;;;;5068594;28;20054;-58
2023/07/18 05:31:48;;;;;;;8.32;1.58;;;;;;;;;;5055126;28;20059;-56
2023/07/18 05:34:22;;;;;;;12.07;2.07;;;;;;;;;;5067927;28;20052;-59
2023/07/18 05:36:50;;;;;;;11.07;1.40;;;;;;;;;;5034181;28;20066;-58
2023/07/18 05:39:19;;;;;;;8.50;1.67;;;;;;;;;;5054818;28;20052;-58
2023/07/18 05:41:47;;;;;;;8.15;1.00;;;;;;;;;;5062030;28;20506;-58
2023/07/18 05:44:16;;;;;;;11.70;1.77;;;;;;;;;;5043510;28;20043;-58
2023/07/18 05:46:44;;;;;;;12.03;1.50;;;;;;;;;;5053303;28;20044;-59
2023/07/18 05:49:11;;;;;;;9.48;1.20;;;;;;;;;;5064736;28;20048;-58
2023/07/18 05:51:39;;;;;;;9.45;1.50;;;;;;;;;;5056103;28;20052;-58
2023/07/18 05:54:07;;;;;;;9.20;1.55;;;;;;;;;;5062163;28;20055;-58
2023/07/18 05:56:36;;;;;;;10.02;1.48;;;;;;;;;;5064332;28;20072;-58
2023/07/18 05:59:06;;;;;;;12.90;1.57;;;;;;;;;;5056947;28;20052;-58
2023/07/18 06:01:34;;;;;;;8.85;1.50;;;;;;;;;;5054030;28;20052;-58
2023/07/18 06:04:01;;;;;;;11.60;1.92;;;;;;;;;;5064530;28;20111;-58
2023/07/18 06:06:29;;;;;;;13.73;1.65;;;;;;;;;;5066052;28;20800;-59
2023/07/18 06:08:57;;;;;;;12.18;1.40;;;;;;;;;;5056322;28;20046;-59
2023/07/18 06:11:25;;;;;;;11.17;1.30;;;;;;;;;;5053493;28;20150;-59
2023/07/18 06:13:54;;;;;;;8.55;1.20;;;;;;;;;;5065426;28;20051;-59
2023/07/18 06:16:22;;;;;;;8.90;1.95;;;;;;;;;;5058289;28;20056;-59
2023/07/18 06:18:50;;;;;;;9.88;2.35;;;;;;;;;;5053567;28;20055;-59
2023/07/18 06:21:18;;;;;;;11.25;2.25;;;;;;;;;;5065723;28;20052;-59
2023/07/18 06:23:46;;;;;;;10.53;2.30;;;;;;;;;;5047952;28;20044;-59
2023/07/18 06:26:16;;;;;;;11.13;2.00;;;;;;;;;;5059999;28;20048;-59
2023/07/18 06:28:43;;;;;;;12.38;2.63;;;;;;;;;;5053713;28;20048;-59
2023/07/18 06:31:14;;;;;;;11.68;2.20;;;;;;;;;;5049205;28;20040;-59
2023/07/18 06:33:42;;;;;;;10.40;2.20;;;;;;;;;;5062565;28;20052;-59
2023/07/18 06:36:09;;;;;;;8.37;1.30;;;;;;;;;;5055910;28;20056;-59
2023/07/18 06:38:38;;;;;;;11.25;1.85;;;;;;;;;;5060476;28;20044;-59
2023/07/18 06:41:06;;;;;;;8.75;1.58;;;;;;;;;;5056408;28;20368;-59
2023/07/18 06:43:34;;;;;;;7.50;1.23;;;;;;;;;;5052334;28;20067;-59
2023/07/18 06:46:01;;;;;;;11.60;1.52;;;;;;;;;;5072049;28;20059;-59
2023/07/18 06:48:31;;;;;;;9.60;1.40;;;;;;;;;;5052038;28;21226;-59
2023/07/18 06:50:59;;;;;;;12.43;1.58;;;;;;;;;;5066047;28;20067;-59
2023/07/18 06:53:27;;;;;;;10.70;1.75;;;;;;;;;;5050949;28;20070;-59
2023/07/18 06:55:57;;;;;;;9.35;1.88;;;;;;;;;;5064772;28;20048;-59
2023/07/18 06:58:24;;;;;;;7.97;1.90;;;;;;;;;;5052732;28;20048;-59
2023/07/18 07:00:52;;;;;;;12.43;2.37;;;;;;;;;;5042166;28;20070;-58
2023/07/18 07:03:22;;;;;;;13.43;1.77;;;;;;;;;;5057264;28;20052;-59
2023/07/18 07:05:51;;;;;;;10.50;1.92;;;;;;;;;;5069147;28;20464;-58
2023/07/18 07:08:21;;;;;;;11.38;2.22;;;;;;;;;;5050643;28;20052;-59
2023/07/18 07:10:48;;;;;;;6.65;1.65;;;;;;;;;;5065278;28;20055;-54
2023/07/18 07:13:16;;;;;;;7.10;1.67;;;;;;;;;;5050412;28;20491;-59
2023/07/18 07:15:44;;;;;;;9.32;1.90;;;;;;;;;;5063900;28;20076;-60
2023/07/18 07:18:12;;;;;;;7.60;1.77;;;;;;;;;;5050441;28;20261;-60
2023/07/18 07:20:40;;;;;;;10.80;1.50;;;;;;;;;;5054683;28;20083;-60
2023/07/18 07:23:10;;;;;;;13.40;2.58;;;;;;;;;;5051085;28;20131;-60
2023/07/18 07:25:37;;;;;;;8.53;1.20;;;;;;;;;;5072652;28;20040;-60
2023/07/18 07:28:05;;;;;;;10.15;1.58;;;;;;;;;;5051749;28;20052;-60
2023/07/18 07:30:34;;;;;;;9.07;1.85;;;;;;;;;;5064601;28;20609;-60
2023/07/18 07:33:02;;;;;;;12.90;1.15;;;;;;;;;;5057412;28;20683;-60
2023/07/18 07:35:30;;;;;;;12.45;1.05;;;;;;;;;;5066554;28;20067;-60
2023/07/18 07:37:58;;;;;;;7.83;0.97;;;;;;;;;;5062219;28;20048;-60
2023/07/18 07:40:29;;;;;;;7.43;0.98;;;;;;;;;;5068760;28;20055;-60
2023/07/18 07:42:58;;;;;;;9.02;0.93;;;;;;;;;;5025812;28;20061;-60
2023/07/18 07:45:25;;;;;;;10.77;1.15;;;;;;;;;;5029526;28;20528;-60
2023/07/18 07:47:53;;;;;;;8.43;1.30;;;;;;;;;;5074354;28;20663;-60
2023/07/18 07:50:21;;;;;;;8.70;1.07;;;;;;;;;;5058004;28;20044;-60
2023/07/18 07:52:48;;;;;;;8.07;1.00;;;;;;;;;;5058962;28;20053;-56
2023/07/18 07:55:16;;;;;;;10.57;0.93;;;;;;;;;;4707060;28;10000738;-60
2023/07/18 07:57:45;;;;;;;7.47;1.40;;;;;;;;;;5055890;28;20449;-60
2023/07/18 08:00:13;;;;;;;5.63;0.90;;;;;;;;;;5061277;28;20445;-61
2023/07/18 08:02:41;;;;;;;4.63;0.60;;;;;;;;;;5036977;28;20069;-60
2023/07/18 08:05:09;;;;;;;11.38;1.35;;;;;;;;;;5031449;28;20486;-60
2023/07/18 08:07:38;;;;;;;8.20;1.25;;;;;;;;;;5061007;28;20044;-60
2023/07/18 08:10:06;;;;;;;6.43;1.05;;;;;;;;;;5053480;28;20051;-60
2023/07/18 08:12:33;;;;;;;8.93;1.08;;;;;;;;;;5065060;28;20835;-60
2023/07/18 08:15:02;;;;;;;6.93;1.60;;;;;;;;;;5048122;28;20058;-60
2023/07/18 08:17:30;;;;;;;7.10;1.27;;;;;;;;;;5058828;28;20048;-61
2023/07/18 08:19:58;;;;;;;6.60;0.88;;;;;;;;;;4694059;28;10000246;-60
2023/07/18 08:22:26;;;;;;;7.70;1.20;;;;;;;;;;5044122;28;20040;-60
2023/07/18 08:24:53;;;;;;;6.00;1.30;;;;;;;;;;5049333;28;20045;-59
2023/07/18 08:27:21;;;;;;;6.72;0.82;;;;;;;;;;5071615;28;20094;-59
2023/07/18 08:29:49;;;;;;;6.75;1.20;;;;;;;;;;5059188;28;20048;-58
2023/07/18 08:32:18;;;;;;;8.07;1.20;;;;;;;;;;5069026;28;20059;-60
2023/07/18 08:34:46;;;;;;;6.90;1.40;;;;;;;;;;5058469;28;20048;-60
2023/07/18 08:37:13;;;;;;;5.97;1.02;;;;;;;;;;5067467;28;20502;-60
2023/07/18 08:39:41;;;;;;;4.75;0.73;;;;;;;;;;5059113;28;20048;-60
2023/07/18 08:42:13;;;;;;;7.10;0.82;;;;;;;;;;5064377;28;20584;-58
2023/07/18 08:44:42;;;;;;;6.75;1.30;;;;;;;;;;5040529;28;20078;-60
2023/07/18 08:47:10;;;;;;;5.87;1.00;;;;;;;;;;5061098;28;20126;-60
2023/07/18 08:49:39;;;;;;;6.68;1.02;;;;;;;;;;5072055;28;20552;-60
2023/07/18 08:52:07;;;;;;;6.10;0.60;;;;;;;;;;5060580;28;20048;-60
2023/07/18 08:54:35;;;;;;;4.65;1.20;;;;;;;;;;5060310;28;20418;-60
2023/07/18 08:57:05;;;;;;;13.00;1.20;;;;;;;;;;5063826;28;20055;-60
2023/07/18 08:59:33;;;;;;;5.70;1.10;;;;;;;;;;5064578;28;20506;-60
2023/07/18 09:02:01;;;;;;;2.88;0.55;;;;;;;;;;5051687;28;20629;-60
2023/07/18 09:04:29;;;;;;;4.05;0.73;;;;;;;;;;5050926;28;20044;-56
2023/07/18 09:06:58;;;;;;;5.43;0.82;;;;;;;;;;5061662;28;20044;-60
2023/07/18 09:09:26;;;;;;;5.47;0.90;;;;;;;;;;5061568;28;20059;-59
2023/07/18 09:11:55;;;;;;;5.40;0.60;;;;;;;;;;5057667;28;20490;-60
2023/07/18 09:14:23;;;;;;;5.28;0.65;;;;;;;;;;5066789;28;20059;-60
2023/07/18 09:16:52;;;;;;;6.10;0.70;;;;;;;;;;5043894;28;20047;-60
2023/07/18 09:19:22;;;;;;;3.53;0.47;;;;;;;;;;5056665;28;20458;-60
2023/07/18 09:21:58;;;;;;;4.03;0.60;;;;;;;;;;5056425;28;20769;-59
2023/07/18 09:24:31;;;;;;;3.93;0.80;;;;;;;;;;5045701;28;20147;-60
2023/07/18 09:27:00;;;;;;;4.50;0.80;;;;;;;;;;5059916;28;20143;-60
2023/07/18 09:29:27;;;;;;;5.18;1.00;;;;;;;;;;5059252;28;20231;-60
2023/07/18 09:31:56;;;;;;;4.40;0.90;;;;;;;;;;5066740;28;20048;-60
2023/07/18 09:34:51;;;;;;;6.22;0.93;;;;;;;;;;5060675;28;20491;-60
2023/07/18 09:37:19;;;;;;;3.80;0.50;;;;;;;;;;5068596;28;20050;-60
2023/07/18 09:39:48;;;;;;;5.32;1.05;;;;;;;;;;5055730;28;20126;-60
2023/07/18 09:42:17;;;;;;;3.33;0.98;;;;;;;;;;5058709;28;20053;-61
2023/07/18 09:44:48;;;;;;;3.60;0.60;;;;;;;;;;5056429;28;20048;-61
2023/07/18 09:47:19;;;;;;;5.53;1.00;;;;;;;;;;5049370;28;20159;-61
2023/07/18 09:49:48;;;;;;;4.20;0.93;;;;;;;;;;5069122;28;20085;-61
2023/07/18 09:52:19;;;;;;;5.22;0.70;;;;;;;;;;5068143;28;20062;-61
2023/07/18 09:54:50;;;;;;;3.45;0.57;;;;;;;;;;5039417;28;20078;-61
2023/07/18 09:57:18;;;;;;;6.50;0.80;;;;;;;;;;5059273;28;20040;-61
2023/07/18 09:59:49;;;;;;;3.08;0.50;;;;;;;;;;5052111;28;20048;-61
2023/07/18 10:02:17;;;;;;;3.70;0.57;;;;;;;;;;5058294;28;20048;-61
2023/07/18 10:04:45;;;;;;;4.90;0.70;;;;;;;;;;5049716;28;20613;-61
2023/07/18 10:07:12;;;;;;;4.97;1.20;;;;;;;;;;5059421;28;20036;-61
2023/07/18 10:09:40;;;;;;;4.40;0.80;;;;;;;;;;5067487;28;20067;-61
2023/07/18 10:12:12;;;;;;;3.67;0.90;;;;;;;;;;5059847;28;20067;-61
2023/07/18 10:14:50;;;;;;;3.57;0.63;;;;;;;;;;5038742;28;20049;-61
2023/07/18 10:17:37;;;;;;;5.43;0.73;;;;;;;;;;5066077;28;20044;-61
2023/07/18 10:20:11;;;;;;;5.85;0.60;;;;;;;;;;5043743;28;20056;-61
2023/07/18 10:22:46;;;;;;;4.50;0.73;;;;;;;;;;4706267;28;10001186;-61
2023/07/18 10:25:14;;;;;;;6.95;0.88;;;;;;;;;;5056361;28;20071;-61
2023/07/18 10:27:44;;;;;;;5.50;1.10;;;;;;;;;;5070095;28;20051;-61
2023/07/18 10:30:12;;;;;;;7.30;1.10;;;;;;;;;;5054867;28;20044;-61
2023/07/18 10:32:44;;;;;;;4.80;1.20;;;;;;;;;;5062520;28;20456;-61
2023/07/18 10:35:13;;;;;;;5.45;1.45;;;;;;;;;;5063561;28;20062;-61
2023/07/18 10:37:43;;;;;;;6.22;1.13;;;;;;;;;;5052805;28;20121;-61
2023/07/18 10:40:11;;;;;;;5.63;0.83;;;;;;;;;;5070176;28;20048;-61
2023/07/18 10:42:43;;;;;;;5.53;0.90;;;;;;;;;;5064632;28;20150;-61
2023/07/18 10:45:12;;;;;;;8.18;1.60;;;;;;;;;;5062829;28;20071;-61
2023/07/18 10:47:40;;;;;;;4.50;0.98;;;;;;;;;;5057954;28;20445;-62
2023/07/18 10:50:09;;;;;;;4.13;1.30;;;;;;;;;;5050454;28;20704;-60
2023/07/18 10:52:37;;;;;;;5.80;1.40;;;;;;;;;;5071311;28;20044;-60
2023/07/18 10:55:06;;;;;;;7.43;1.58;;;;;;;;;;5063374;28;20040;-61
2023/07/18 10:57:35;;;;;;;6.30;1.45;;;;;;;;;;5064224;28;20076;-60
2023/07/18 11:00:08;;;;;;;6.13;1.52;;;;;;;;;;5077104;28;20068;-60
2023/07/18 11:02:41;;;;;;;7.22;1.38;;;;;;;;;;5060340;28;20206;-60
2023/07/18 11:05:10;;;;;;;6.23;1.13;;;;;;;;;;5064128;28;20052;-60
2023/07/18 11:07:40;;;;;;;4.25;1.05;;;;;;;;;;5069976;28;20059;-60
2023/07/18 11:10:09;;;;;;;4.95;1.17;;;;;;;;;;5061451;28;20132;-61
2023/07/18 11:12:37;;;;;;;6.45;0.95;;;;;;;;;;5075790;28;20048;-61
2023/07/18 11:15:07;;;;;;;8.50;1.30;;;;;;;;;;5051588;28;20118;-59
2023/07/18 11:17:35;;;;;;;5.07;0.90;;;;;;;;;;5050304;28;20048;-59
2023/07/18 11:20:05;;;;;;;4.93;1.10;;;;;;;;;;5063805;28;20052;-59
2023/07/18 11:22:33;;;;;;;5.22;0.98;;;;;;;;;;5046084;28;20522;-59
2023/07/18 11:25:01;;;;;;;4.93;0.95;;;;;;;;;;5048507;28;20048;-59
2023/07/18 11:27:31;;;;;;;5.30;0.93;;;;;;;;;;5047863;28;20055;-59
2023/07/18 11:29:59;;;;;;;7.23;0.90;;;;;;;;;;5030636;28;20058;-59
2023/07/18 11:32:31;;;;;;;4.60;0.80;;;;;;;;;;5044588;28;20240;-60
2023/07/18 11:35:00;;;;;;;7.75;1.13;;;;;;;;;;5044402;28;20486;-59
2023/07/18 11:37:30;;;;;;;5.25;1.00;;;;;;;;;;5051776;28;20075;-59
2023/07/18 11:40:03;;;;;;;4.35;0.65;;;;;;;;;;5050267;28;20048;-59
2023/07/18 11:42:45;;;;;;;8.03;1.10;;;;;;;;;;5042694;28;20094;-59
2023/07/18 11:45:12;;;;;;;9.52;1.05;;;;;;;;;;5047691;28;20122;-59
2023/07/18 11:47:44;;;;;;;4.22;0.90;;;;;;;;;;5052790;28;20138;-60
2023/07/18 11:50:13;;;;;;;8.07;1.00;;;;;;;;;;5045492;28;20105;-59
2023/07/18 11:52:42;;;;;;;4.65;1.20;;;;;;;;;;5003541;28;20365;-59
2023/07/18 11:55:10;;;;;;;5.50;0.83;;;;;;;;;;5009880;28;20102;-59
2023/07/18 11:57:37;;;;;;;5.07;0.90;;;;;;;;;;5000113;28;20052;-59
2023/07/18 12:00:08;;;;;;;4.20;1.33;;;;;;;;;;4992420;28;20072;-59
2023/07/18 12:02:36;;;;;;;3.63;0.77;;;;;;;;;;5003373;28;20148;-60
2023/07/18 12:05:07;;;;;;;5.15;1.25;;;;;;;;;;4987987;28;20713;-60
2023/07/18 12:07:35;;;;;;;3.47;0.90;;;;;;;;;;5011915;28;20076;-59
2023/07/18 12:10:06;;;;;;;4.80;0.90;;;;;;;;;;4992214;28;20052;-60
2023/07/18 12:12:34;;;;;;;5.25;1.05;;;;;;;;;;4997387;28;20053;-60
2023/07/18 12:15:03;;;;;;;4.32;1.10;;;;;;;;;;5005563;28;20049;-60
2023/07/18 12:17:30;;;;;;;4.88;0.95;;;;;;;;;;5006043;28;20041;-61
2023/07/18 12:19:58;;;;;;;7.83;0.93;;;;;;;;;;5007641;28;20091;-60
2023/07/18 12:22:26;;;;;;;6.32;0.73;;;;;;;;;;4307035;28;10000214;-60
2023/07/18 12:24:53;;;;;;;7.72;1.15;;;;;;;;;;4993403;28;20053;-60
2023/07/18 12:27:22;;;;;;;4.83;0.67;;;;;;;;;;5012394;28;20044;-60
2023/07/18 12:29:50;;;;;;;6.20;0.88;;;;;;;;;;5002707;28;20061;-60
2023/07/18 12:32:18;;;;;;;4.68;1.02;;;;;;;;;;5001530;28;20056;-59
2023/07/18 12:34:46;;;;;;;4.60;1.30;;;;;;;;;;5001002;28;20052;-59
2023/07/18 12:37:13;;;;;;;5.70;1.23;;;;;;;;;;5011627;28;20148;-59
2023/07/18 12:39:41;;;;;;;4.47;1.07;;;;;;;;;;4991937;28;20053;-60
2023/07/18 12:42:09;;;;;;;5.65;1.00;;;;;;;;;;4988505;28;20060;-56
2023/07/18 12:44:39;;;;;;;5.05;1.00;;;;;;;;;;5009648;28;20045;-60
2023/07/18 12:47:07;;;;;;;5.90;0.83;;;;;;;;;;4648462;28;10001079;-59
2023/07/18 12:49:36;;;;;;;7.65;1.17;;;;;;;;;;5008023;28;20061;-59
2023/07/18 12:52:07;;;;;;;4.60;1.27;;;;;;;;;;5023523;28;20048;-60
2023/07/18 12:54:36;;;;;;;7.80;1.52;;;;;;;;;;5048063;28;20167;-60
2023/07/18 12:57:05;;;;;;;4.93;1.10;;;;;;;;;;5049187;28;20059;-60
2023/07/18 12:59:36;;;;;;;5.13;1.10;;;;;;;;;;5042693;28;20044;-60
2023/07/18 13:02:05;;;;;;;3.75;1.10;;;;;;;;;;5029110;28;20264;-60
2023/07/18 13:04:33;;;;;;;5.60;1.30;;;;;;;;;;5028946;28;20139;-59
2023/07/18 13:07:01;;;;;;;4.13;0.90;;;;;;;;;;5035916;28;20856;-60
2023/07/18 13:09:28;;;;;;;8.07;1.17;;;;;;;;;;5050194;28;20063;-60
2023/07/18 13:11:58;;;;;;;4.53;1.10;;;;;;;;;;5034537;28;20063;-60
2023/07/18 13:14:26;;;;;;;6.18;1.15;;;;;;;;;;5042502;28;20058;-59
2023/07/18 13:16:53;;;;;;;8.98;1.38;;;;;;;;;;5032524;28;20048;-59
2023/07/18 13:19:24;;;;;;;6.05;1.27;;;;;;;;;;5053321;28;20063;-60
2023/07/18 13:21:51;;;;;;;3.95;0.98;;;;;;;;;;5049917;28;20052;-59
2023/07/18 13:24:19;;;;;;;6.33;1.03;;;;;;;;;;5062399;28;20052;-59
2023/07/18 13:26:47;;;;;;;6.55;1.30;;;;;;;;;;5053990;28;20066;-59
2023/07/18 13:29:14;;;;;;;5.88;1.10;;;;;;;;;;5062211;28;20052;-59
2023/07/18 13:31:42;;;;;;;6.72;1.27;;;;;;;;;;5057589;28;20048;-59
2023/07/18 13:34:10;;;;;;;8.60;1.10;;;;;;;;;;5044142;28;20049;-58
2023/07/18 13:36:44;;;;;;;4.00;0.77;;;;;;;;;;5060882;28;20515;-59
2023/07/18 13:39:12;;;;;;;6.65;1.13;;;;;;;;;;5062467;28;20502;-58
2023/07/18 13:41:40;;;;;;;4.18;1.25;;;;;;;;;;5064648;28;20048;-59
2023/07/18 13:44:09;;;;;;;6.40;1.58;;;;;;;;;;5052151;28;20060;-58
2023/07/18 13:46:37;;;;;;;4.22;0.90;;;;;;;;;;5057379;28;20270;-60
2023/07/18 13:49:05;;;;;;;5.63;1.10;;;;;;;;;;5067925;28;20106;-59
2023/07/18 13:51:33;;;;;;;4.10;1.30;;;;;;;;;;5054299;28;20130;-59
2023/07/18 13:54:02;;;;;;;6.53;1.27;;;;;;;;;;5061571;28;20052;-60
2023/07/18 13:56:30;;;;;;;4.82;1.30;;;;;;;;;;5053268;28;20063;-60
2023/07/18 13:58:58;;;;;;;4.70;1.40;;;;;;;;;;5072757;28;20040;-59
2023/07/18 14:01:26;;;;;;;5.00;1.20;;;;;;;;;;5052145;28;20048;-60
2023/07/18 14:03:54;;;;;;;4.35;1.15;;;;;;;;;;5047098;28;20133;-60
2023/07/18 14:06:21;;;;;;;7.05;1.10;;;;;;;;;;5068264;28;20056;-60
2023/07/18 14:08:49;;;;;;;5.38;1.30;;;;;;;;;;5033833;28;20064;-59
2023/07/18 14:11:18;;;;;;;10.10;1.63;;;;;;;;;;5066860;28;20056;-60
2023/07/18 14:13:49;;;;;;;5.73;1.40;;;;;;;;;;5064443;28;20464;-56
2023/07/18 14:16:16;;;;;;;7.05;1.40;;;;;;;;;;5053692;28;20076;-59
2023/07/18 14:18:44;;;;;;;6.70;1.17;;;;;;;;;;5063576;28;20049;-59
2023/07/18 14:21:12;;;;;;;4.80;1.50;;;;;;;;;;5064094;28;20052;-59
2023/07/18 14:23:40;;;;;;;6.78;1.20;;;;;;;;;;5057345;28;20060;-59
2023/07/18 14:26:08;;;;;;;5.57;1.30;;;;;;;;;;5054497;28;20131;-59
2023/07/18 14:28:37;;;;;;;6.22;1.30;;;;;;;;;;5039222;28;20062;-59
2023/07/18 14:31:06;;;;;;;6.38;1.70;;;;;;;;;;5052913;28;20051;-59
2023/07/18 14:33:34;;;;;;;5.70;1.35;;;;;;;;;;5039210;28;20059;-59
2023/07/18 14:36:01;;;;;;;6.00;1.30;;;;;;;;;;5058463;28;20044;-60
2023/07/18 14:38:30;;;;;;;5.37;1.10;;;;;;;;;;5061779;28;20058;-60
2023/07/18 14:40:57;;;;;;;5.45;1.80;;;;;;;;;;5060619;28;20048;-60
2023/07/18 14:43:30;;;;;;;7.20;1.40;;;;;;;;;;5044109;28;20091;-61
2023/07/18 14:45:59;;;;;;;6.90;1.40;;;;;;;;;;5055533;28;20382;-60
2023/07/18 14:48:30;;;;;;;6.25;0.85;;;;;;;;;;4778155;28;10000825;-60